Time;durP1;ratioP1;P1;durP2;ratioP2;P2;SDS_P1;SDS_P2;PMS_P1;PMS_P2;Temp;Humidity;BMP_temperature;BMP_pressure;BME280_temperature;BME280_humidity;BME280_pressure;Samples;Min_cycle;Max_cycle;Signal;HPM_P1;HPM_P2
2021/12/05 00:21:38;;;;;;;4.45;2.27;;;12.60;68.20;;;;;;1872690;75;21082;-42
2021/12/05 00:23:51;;;;;;;6.55;1.82;;;12.60;70.00;;;;;;1870232;75;21027;-41
2021/12/05 00:26:19;;;;;;;5.92;2.47;;;12.50;69.00;;;;;;1872357;75;21097;-40
2021/12/05 00:31:50;;;;;;;3.33;2.02;;;12.50;68.90;;;;;;1872716;75;21051;-41
2021/12/05 00:39:54;;;;;;;4.95;2.10;;;12.50;71.60;;;;;;1872802;75;21121;-42
2021/12/05 00:42:40;;;;;;;5.35;2.52;;;12.40;72.10;;;;;;1870923;75;21094;-41
2021/12/05 00:47:36;;;;;;;6.78;2.77;;;12.40;72.10;;;;;;1872877;75;21172;-40
2021/12/05 00:50:32;;;;;;;3.98;2.17;;;12.40;71.90;;;;;;1872153;76;21092;-41
2021/12/05 01:04:15;;;;;;;8.65;3.00;;;12.40;71.50;;;;;;1872773;77;21082;-41
2021/12/05 01:11:49;;;;;;;3.50;2.42;;;12.30;74.00;;;;;;1872876;75;21047;-41
2021/12/05 01:16:42;;;;;;;6.78;2.60;;;12.30;73.70;;;;;;1872826;76;21097;-41
2021/12/05 01:19:16;;;;;;;7.22;2.70;;;12.30;75.30;;;;;;1873020;75;21489;-42
2021/12/05 01:21:49;;;;;;;5.60;2.50;;;12.30;75.80;;;;;;1872655;76;21090;-41
2021/12/05 01:24:36;;;;;;;5.25;2.55;;;12.20;75.10;;;;;;1872872;76;21503;-41
2021/12/05 01:27:04;;;;;;;8.55;2.37;;;12.20;75.90;;;;;;1871886;75;21110;-40
2021/12/05 01:30:17;;;;;;;5.28;2.77;;;12.20;75.60;;;;;;1872353;76;21547;-41
2021/12/05 01:33:09;;;;;;;4.62;2.50;;;12.20;76.10;;;;;;1855438;75;21523;-41
2021/12/05 01:51:40;;;;;;;10.40;3.05;;;12.10;79.60;;;;;;1872809;75;21067;-42
2021/12/05 01:59:40;;;;;;;4.65;2.20;;;12.10;78.50;;;;;;1872825;75;21051;-41
2021/12/05 02:02:34;;;;;;;8.70;3.30;;;12.10;79.30;;;;;;1871843;76;21101;-41
2021/12/05 02:30:02;;;;;;;8.13;3.52;;;12.00;81.00;;;;;;1872756;75;21051;-42
2021/12/05 02:32:00;;;;;;;4.42;2.95;;;12.00;81.30;;;;;;1858071;75;21049;-43
2021/12/05 02:37:11;;;;;;;6.15;2.80;;;12.00;82.70;;;;;;1883137;76;21103;-43
2021/12/05 02:39:40;;;;;;;3.42;2.60;;;12.00;82.70;;;;;;1876490;75;21010;-41
2021/12/05 02:42:23;;;;;;;7.33;3.60;;;12.00;83.00;;;;;;1881178;76;21022;-42
2021/12/05 02:44:46;;;;;;;4.58;2.08;;;12.00;83.20;;;;;;1881322;75;21039;-41
2021/12/05 02:47:18;;;;;;;5.03;3.12;;;12.00;83.80;;;;;;1882780;75;21049;-42
2021/12/05 02:49:50;;;;;;;4.17;2.70;;;12.00;83.10;;;;;;1882761;76;21459;-41
2021/12/05 02:52:27;;;;;;;4.20;2.83;;;12.00;83.30;;;;;;1882720;76;21049;-42
2021/12/05 02:54:57;;;;;;;3.70;2.72;;;12.00;84.20;;;;;;1882665;75;21057;-41
2021/12/05 02:58:15;;;;;;;5.25;2.90;;;12.00;84.10;;;;;;1882798;76;21112;-41
2021/12/05 03:00:08;;;;;;;7.08;3.10;;;12.00;84.40;;;;;;1863740;76;21053;-41
2021/12/05 03:02:37;;;;;;;4.42;2.80;;;12.00;84.10;;;;;;1881733;75;21021;-42
2021/12/05 03:05:09;;;;;;;4.72;3.00;;;12.00;83.50;;;;;;1882684;75;21041;-43
2021/12/05 03:07:40;;;;;;;5.47;2.60;;;12.00;83.60;;;;;;1882407;76;21097;-42
2021/12/05 03:10:08;;;;;;;4.30;2.67;;;12.00;84.40;;;;;;1882598;75;20998;-41
2021/12/05 03:12:39;;;;;;;3.87;2.62;;;12.00;84.00;;;;;;1882775;75;21026;-42
2021/12/05 03:15:11;;;;;;;4.08;2.72;;;12.00;84.60;;;;;;1882848;75;21490;-41
2021/12/05 03:17:42;;;;;;;4.95;2.80;;;12.00;84.30;;;;;;1882824;75;21018;-41
2021/12/05 03:20:14;;;;;;;3.25;2.70;;;12.00;83.60;;;;;;1850742;76;21017;-42
2021/12/05 03:22:44;;;;;;;7.47;3.50;;;11.90;84.10;;;;;;1882817;76;20997;-41
2021/12/05 03:25:14;;;;;;;4.40;3.10;;;12.00;84.10;;;;;;1882745;76;20994;-42
2021/12/05 03:27:44;;;;;;;6.95;3.40;;;12.00;84.30;;;;;;1882724;75;21123;-41
2021/12/05 03:30:18;;;;;;;7.65;2.90;;;11.90;84.40;;;;;;1882718;75;21522;-41
2021/12/05 03:32:50;;;;;;;4.15;2.90;;;11.90;83.90;;;;;;1882904;76;21107;-41
2021/12/05 03:35:22;;;;;;;4.33;2.92;;;11.90;83.50;;;;;;1875153;75;21066;-41
2021/12/05 03:37:52;;;;;;;3.80;2.33;;;11.90;84.60;;;;;;1872682;76;21114;-41
2021/12/05 03:40:24;;;;;;;4.15;2.62;;;11.90;85.20;;;;;;1872616;75;21089;-41
2021/12/05 03:42:54;;;;;;;3.50;2.98;;;11.90;84.60;;;;;;1872493;75;21070;-42
2021/12/05 03:45:27;;;;;;;6.53;2.80;;;11.90;85.80;;;;;;1872709;75;21015;-42
2021/12/05 03:47:57;;;;;;;8.03;2.98;;;11.90;84.30;;;;;;1872689;75;21078;-41
2021/12/05 03:50:27;;;;;;;5.17;2.75;;;12.00;84.90;;;;;;1872580;75;21180;-41
2021/12/05 03:52:57;;;;;;;5.75;3.45;;;12.00;85.40;;;;;;1872760;75;21031;-41
2021/12/05 03:55:26;;;;;;;4.28;2.55;;;12.00;84.40;;;;;;1872787;75;21074;-42
2021/12/05 03:57:56;;;;;;;4.33;2.92;;;12.00;85.00;;;;;;1872799;75;21066;-42
2021/12/05 04:00:38;;;;;;;5.90;2.80;;;12.10;85.50;;;;;;1872729;75;21067;-40
2021/12/05 04:03:10;;;;;;;6.50;3.45;;;12.10;85.40;;;;;;1872748;76;21031;-41
2021/12/05 04:05:40;;;;;;;5.58;3.10;;;12.10;85.00;;;;;;1872790;76;21027;-40
2021/12/05 04:08:12;;;;;;;5.17;3.27;;;12.10;85.10;;;;;;1872664;75;21089;-42
2021/12/05 04:10:45;;;;;;;5.10;3.27;;;12.10;84.80;;;;;;1872664;75;21050;-42
2021/12/05 04:13:15;;;;;;;6.20;4.03;;;12.10;85.00;;;;;;1872672;76;21465;-41
2021/12/05 04:15:48;;;;;;;4.87;3.20;;;12.10;85.40;;;;;;1872570;76;21155;-41
2021/12/05 04:18:19;;;;;;;5.85;3.85;;;12.10;85.00;;;;;;1872744;77;21043;-41
2021/12/05 04:20:50;;;;;;;8.38;3.50;;;12.10;85.10;;;;;;1872771;76;21031;-42
2021/12/05 04:23:20;;;;;;;7.00;3.67;;;12.10;85.20;;;;;;1872811;75;21007;-41
2021/12/05 04:25:51;;;;;;;5.40;3.62;;;12.10;85.30;;;;;;1872703;76;21092;-41
2021/12/05 04:28:23;;;;;;;7.28;3.92;;;12.10;85.00;;;;;;1872833;75;21023;-41
2021/12/05 04:30:53;;;;;;;7.05;4.03;;;12.10;85.10;;;;;;1872811;75;21055;-41
2021/12/05 04:33:24;;;;;;;8.43;4.35;;;12.10;85.80;;;;;;1872633;75;21046;-42
2021/12/05 04:35:54;;;;;;;6.65;4.30;;;12.10;85.60;;;;;;1872671;75;21055;-41
2021/12/05 04:38:24;;;;;;;8.75;4.78;;;12.10;85.10;;;;;;1872660;76;21031;-41
2021/12/05 04:40:53;;;;;;;7.58;3.67;;;12.10;85.30;;;;;;1872805;75;21019;-42
2021/12/05 04:43:23;;;;;;;8.18;3.83;;;12.20;85.90;;;;;;1872786;75;21108;-41
2021/12/05 04:45:54;;;;;;;7.55;4.05;;;12.20;86.20;;;;;;1872757;76;21485;-41
2021/12/05 04:48:24;;;;;;;8.55;4.17;;;12.10;86.00;;;;;;1872733;75;21085;-41
2021/12/05 04:50:54;;;;;;;7.03;3.70;;;12.20;86.30;;;;;;1860675;76;21019;-40
2021/12/05 04:53:26;;;;;;;9.65;4.45;;;12.20;86.20;;;;;;1872788;75;21093;-40
2021/12/05 04:55:57;;;;;;;8.63;3.80;;;12.20;86.10;;;;;;1872883;75;20995;-41
2021/12/05 04:58:27;;;;;;;5.45;3.35;;;12.20;85.70;;;;;;1872709;75;21080;-40
2021/12/05 05:00:58;;;;;;;5.20;3.25;;;12.30;85.90;;;;;;1872768;75;21068;-41
2021/12/05 05:03:28;;;;;;;6.20;3.37;;;12.20;85.90;;;;;;1872743;76;21806;-41
2021/12/05 05:06:14;;;;;;;4.22;3.45;;;12.30;86.00;;;;;;1872702;75;21035;-40
2021/12/05 05:08:38;;;;;;;5.25;3.72;;;12.30;86.00;;;;;;1872414;76;21090;-44
2021/12/05 05:11:10;;;;;;;8.35;3.33;;;12.30;85.50;;;;;;1872734;75;21131;-40
2021/12/05 05:13:39;;;;;;;11.12;3.42;;;12.30;85.70;;;;;;1872751;77;21081;-41
2021/12/05 05:16:11;;;;;;;5.35;4.00;;;12.40;85.80;;;;;;1872757;76;21027;-41
2021/12/05 05:18:50;;;;;;;7.58;3.75;;;12.40;86.10;;;;;;1872811;75;21489;-40
2021/12/05 05:24:14;;;;;;;4.72;3.22;;;12.40;86.30;;;;;;1872745;76;21086;-41
2021/12/05 05:26:50;;;;;;;7.78;3.92;;;12.40;86.00;;;;;;1871180;75;21528;-40
2021/12/05 05:40:23;;;;;;;4.95;3.67;;;12.50;85.50;;;;;;1872586;75;21047;-42
2021/12/05 05:45:54;;;;;;;6.85;3.72;;;12.60;86.10;;;;;;1872719;75;21043;-42
2021/12/05 05:48:31;;;;;;;9.33;3.87;;;12.60;86.00;;;;;;1872035;75;21043;-40
2021/12/05 05:50:46;;;;;;;7.83;3.92;;;12.60;85.60;;;;;;1871540;76;21555;-41
2021/12/05 05:53:15;;;;;;;6.65;4.20;;;12.60;85.50;;;;;;1872828;77;21097;-42
2021/12/05 05:55:45;;;;;;;7.83;3.80;;;12.60;85.60;;;;;;1872756;75;21100;-41
2021/12/05 05:58:16;;;;;;;15.05;4.30;;;12.60;85.20;;;;;;1872819;75;21023;-39
2021/12/05 06:00:58;;;;;;;8.70;3.80;;;12.60;85.50;;;;;;1872796;77;21100;-41
2021/12/05 06:03:21;;;;;;;6.30;3.77;;;12.60;85.50;;;;;;1872260;75;21023;-42
2021/12/05 06:05:56;;;;;;;5.70;3.20;;;12.60;85.60;;;;;;1872836;75;21520;-41
2021/12/05 06:08:28;;;;;;;6.28;3.40;;;12.60;86.00;;;;;;1872996;75;21489;-42
2021/12/05 06:11:00;;;;;;;7.75;4.08;;;12.60;86.50;;;;;;1872853;75;21015;-41
2021/12/05 06:13:29;;;;;;;7.42;3.72;;;12.70;85.60;;;;;;1872733;75;21026;-41
2021/12/05 06:15:59;;;;;;;4.28;3.10;;;12.70;86.10;;;;;;1872812;75;21084;-42
2021/12/05 06:18:30;;;;;;;6.80;3.27;;;12.70;86.10;;;;;;1872751;75;21102;-41
2021/12/05 06:20:59;;;;;;;3.90;3.05;;;12.70;85.60;;;;;;1872759;75;21527;-41
2021/12/05 06:23:28;;;;;;;7.45;3.30;;;12.70;85.60;;;;;;1872838;75;21074;-41
2021/12/05 06:25:58;;;;;;;3.85;3.00;;;12.70;85.80;;;;;;1872750;75;21136;-41
2021/12/05 06:28:44;;;;;;;6.10;3.20;;;12.70;85.70;;;;;;1872703;77;21032;-40
2021/12/05 06:42:33;;;;;;;6.60;3.20;;;12.80;85.10;;;;;;1872784;75;21046;-41
2021/12/05 06:47:34;;;;;;;4.92;2.67;;;12.80;84.80;;;;;;1872832;75;21101;-42
2021/12/05 06:50:04;;;;;;;4.55;2.75;;;12.90;84.70;;;;;;1872882;75;21077;-41
2021/12/05 06:52:33;;;;;;;4.12;3.33;;;12.90;84.80;;;;;;1872832;75;21085;-40
2021/12/05 06:55:03;;;;;;;5.40;3.25;;;12.90;84.60;;;;;;1872795;76;21026;-41
2021/12/05 06:57:32;;;;;;;3.40;2.33;;;12.90;84.70;;;;;;1872767;75;21094;-42
2021/12/05 07:00:05;;;;;;;5.25;2.98;;;12.90;85.10;;;;;;1872658;75;21031;-41
2021/12/05 07:02:32;;;;;;;3.55;2.55;;;12.90;84.70;;;;;;1872586;75;21496;-41
2021/12/05 07:05:19;;;;;;;5.45;3.05;;;12.80;84.40;;;;;;1872633;75;21019;-42
2021/12/05 07:07:36;;;;;;;3.75;2.65;;;12.80;84.20;;;;;;1871226;75;21059;-41
2021/12/05 07:10:06;;;;;;;3.75;2.35;;;12.80;84.50;;;;;;1872679;75;21497;-41
2021/12/05 07:23:47;;;;;;;3.85;2.70;;;12.80;83.90;;;;;;1872794;75;21047;-40
2021/12/05 07:26:30;;;;;;;3.45;2.75;;;12.80;84.00;;;;;;1872094;75;21578;-40
2021/12/05 07:42:49;;;;;;;4.80;3.02;;;12.90;83.90;;;;;;1883093;76;21126;-41
2021/12/05 07:45:25;;;;;;;5.30;2.70;;;12.90;83.80;;;;;;1882898;76;21057;-41
2021/12/05 07:47:52;;;;;;;2.45;1.92;;;12.90;84.00;;;;;;1882836;75;21509;-42
2021/12/05 07:50:33;;;;;;;4.85;2.70;;;12.90;83.80;;;;;;1883032;76;21037;-41
2021/12/05 07:52:55;;;;;;;4.58;2.98;;;13.00;83.80;;;;;;1880963;76;21006;-41
2021/12/05 07:55:30;;;;;;;3.62;2.70;;;13.00;83.60;;;;;;1883066;76;21467;-41
2021/12/05 07:58:11;;;;;;;3.02;2.50;;;13.00;83.50;;;;;;1882313;75;21538;-40
2021/12/05 08:00:52;;;;;;;2.27;1.87;;;13.10;83.70;;;;;;1853012;76;21045;-40
2021/12/05 08:14:30;;;;;;;3.47;2.45;;;13.10;82.90;;;;;;1883005;75;21042;-41
2021/12/05 08:16:53;;;;;;;3.90;2.30;;;13.10;82.70;;;;;;1881319;75;21087;-40
2021/12/05 08:19:23;;;;;;;2.33;1.57;;;13.10;82.80;;;;;;1882887;75;20997;-41
2021/12/05 08:21:55;;;;;;;4.80;2.65;;;13.10;82.90;;;;;;1882783;76;21091;-41
2021/12/05 08:24:30;;;;;;;3.95;2.60;;;13.10;82.80;;;;;;1882945;75;21472;-41
2021/12/05 08:26:57;;;;;;;3.72;2.08;;;13.00;82.70;;;;;;1882889;75;21087;-40
2021/12/05 08:29:35;;;;;;;3.90;2.10;;;13.00;83.30;;;;;;1882826;75;21064;-40
2021/12/05 08:32:19;;;;;;;5.62;2.42;;;13.00;83.40;;;;;;1881263;76;21049;-40
2021/12/05 08:35:08;;;;;;;4.40;2.30;;;13.00;83.50;;;;;;1879501;76;21108;-41
2021/12/05 08:43:22;;;;;;;3.00;2.10;;;13.10;83.50;;;;;;1891572;74;21066;-41
2021/12/05 08:45:59;;;;;;;3.85;2.00;;;13.10;83.30;;;;;;1888365;75;21077;-41
2021/12/05 09:22:11;;;;;;;25.02;13.10;;;12.80;83.90;;;;;;1891541;74;21129;-40
2021/12/05 09:51:10;;;;;;;28.15;11.57;;;11.60;86.70;;;;;;1872706;76;21082;-40
2021/12/05 10:13:32;;;;;;;33.63;14.60;;;10.90;88.30;;;;;;1872798;75;21051;-38
2021/12/05 10:16:30;;;;;;;16.97;8.53;;;11.00;87.80;;;;;;1871010;76;21153;-38
2021/12/05 10:27:08;;;;;;;9.75;5.15;;;10.80;87.50;;;;;;1872587;75;21055;-39
2021/12/05 10:37:57;;;;;;;9.38;5.78;;;10.60;87.30;;;;;;1883588;75;21053;-39
2021/12/05 10:40:33;;;;;;;7.87;4.30;;;10.60;87.60;;;;;;1881535;76;21005;-39
2021/12/05 10:42:55;;;;;;;6.35;2.95;;;10.60;87.60;;;;;;1881121;76;21082;-38
2021/12/05 10:45:33;;;;;;;19.80;10.35;;;10.60;87.50;;;;;;1905155;75;20991;-39
2021/12/05 10:48:10;;;;;;;21.97;10.63;;;10.50;87.50;;;;;;1890990;74;21137;-38
2021/12/05 10:50:49;;;;;;;37.80;16.52;;;10.50;87.60;;;;;;1897408;75;21101;-37
2021/12/05 10:53:39;;;;;;;25.23;13.80;;;10.40;87.60;;;;;;1913897;75;21041;-38
2021/12/05 10:56:17;;;;;;;13.95;7.85;;;10.40;87.60;;;;;;1897151;75;21038;-38
2021/12/05 10:58:55;;;;;;;22.60;10.20;;;10.30;87.90;;;;;;1890367;75;21175;-38
2021/12/05 11:01:30;;;;;;;9.35;6.40;;;10.30;87.70;;;;;;1895437;75;21124;-39
2021/12/05 11:04:14;;;;;;;12.65;7.22;;;10.20;87.90;;;;;;1896453;75;21101;-39
2021/12/05 11:06:57;;;;;;;6.50;4.72;;;10.30;87.90;;;;;;1895875;75;21191;-38
2021/12/05 11:09:32;;;;;;;9.60;5.20;;;10.20;87.80;;;;;;1882247;75;21089;-38
2021/12/05 11:12:12;;;;;;;10.05;5.62;;;10.20;87.70;;;;;;1903198;75;22308;-38
2021/12/05 11:14:47;;;;;;;4.60;3.47;;;10.10;87.30;;;;;;1882584;75;21098;-38
2021/12/05 11:17:34;;;;;;;8.60;3.98;;;10.10;87.40;;;;;;1909176;75;21035;-38
2021/12/05 11:20:21;;;;;;;8.58;5.35;;;10.00;87.50;;;;;;1893405;75;21015;-38
2021/12/05 11:22:49;;;;;;;6.15;3.42;;;9.90;87.60;;;;;;1881824;75;21125;-39
2021/12/05 11:25:24;;;;;;;4.45;2.98;;;9.90;87.80;;;;;;1897521;75;21027;-38
2021/12/05 11:27:59;;;;;;;7.00;3.75;;;9.90;88.10;;;;;;1909732;74;22651;-38
2021/12/05 11:30:34;;;;;;;6.95;3.72;;;9.80;88.00;;;;;;1892288;75;21461;-38
2021/12/05 11:33:08;;;;;;;4.92;3.75;;;9.80;88.10;;;;;;1901902;75;21212;-38
2021/12/05 11:35:42;;;;;;;7.12;4.78;;;9.70;88.40;;;;;;1892198;75;21046;-38
2021/12/05 11:38:20;;;;;;;14.73;6.60;;;9.70;88.00;;;;;;1898546;74;21187;-38
2021/12/05 11:41:05;;;;;;;15.13;7.53;;;9.70;88.40;;;;;;1907316;74;21081;-39
2021/12/05 11:43:56;;;;;;;6.90;4.05;;;9.70;88.30;;;;;;1918441;74;21096;-40
2021/12/05 11:46:31;;;;;;;9.40;5.80;;;9.70;88.10;;;;;;1906444;74;21038;-39
2021/12/05 11:49:05;;;;;;;5.05;3.98;;;9.70;88.10;;;;;;1921001;74;21092;-38
2021/12/05 11:51:44;;;;;;;6.92;4.40;;;9.70;88.10;;;;;;1891212;74;20999;-39
2021/12/05 11:54:20;;;;;;;5.85;4.67;;;9.60;87.70;;;;;;1910200;74;21120;-40
2021/12/05 11:57:07;;;;;;;6.90;4.70;;;9.60;87.90;;;;;;1910374;74;21023;-40
2021/12/05 11:59:49;;;;;;;5.58;4.45;;;9.60;88.20;;;;;;1893655;74;21030;-39
2021/12/05 12:02:20;;;;;;;7.30;4.87;;;9.60;88.30;;;;;;1909783;74;21035;-40
2021/12/05 12:04:55;;;;;;;7.95;5.30;;;9.60;88.40;;;;;;1921920;74;21480;-40
2021/12/05 12:07:34;;;;;;;7.22;4.67;;;9.50;88.40;;;;;;1905047;74;21108;-40
2021/12/05 12:10:12;;;;;;;6.35;5.03;;;9.50;88.60;;;;;;1901969;74;21034;-40
2021/12/05 12:12:44;;;;;;;8.25;5.50;;;9.60;88.80;;;;;;1923462;74;21094;-40
2021/12/05 12:15:15;;;;;;;6.97;5.72;;;9.60;88.10;;;;;;1920943;74;21535;-40
2021/12/05 12:17:46;;;;;;;19.80;11.15;;;9.60;88.00;;;;;;1922103;74;21103;-40
2021/12/05 12:20:19;;;;;;;33.92;18.52;;;9.60;88.10;;;;;;1924252;74;21092;-40
2021/12/05 12:22:50;;;;;;;16.62;9.13;;;9.60;88.00;;;;;;1915652;74;21038;-39
2021/12/05 12:25:22;;;;;;;24.50;11.83;;;9.60;88.10;;;;;;1896446;74;21019;-42
2021/12/05 12:27:52;;;;;;;19.50;9.75;;;9.70;88.00;;;;;;1907507;74;21045;-40
2021/12/05 12:30:24;;;;;;;11.90;7.83;;;9.70;88.10;;;;;;1893207;74;21109;-40
2021/12/05 12:32:56;;;;;;;15.80;9.40;;;9.80;87.90;;;;;;1900636;74;21187;-40
2021/12/05 12:35:30;;;;;;;13.20;7.83;;;9.90;87.90;;;;;;1924435;74;21530;-40
2021/12/05 12:38:09;;;;;;;12.65;8.08;;;9.90;87.70;;;;;;1907235;74;21050;-40
2021/12/05 12:40:53;;;;;;;7.12;5.33;;;9.90;87.60;;;;;;1921048;74;21043;-39
2021/12/05 12:43:42;;;;;;;27.42;8.05;;;10.00;87.30;;;;;;1924249;74;21023;-39
2021/12/05 12:46:29;;;;;;;7.45;5.45;;;10.00;87.00;;;;;;1902685;74;21038;-40
2021/12/05 12:49:01;;;;;;;9.53;6.35;;;10.00;87.30;;;;;;1902251;74;21070;-40
2021/12/05 12:51:35;;;;;;;7.78;5.58;;;10.10;87.30;;;;;;1891971;74;21491;-40
2021/12/05 12:54:10;;;;;;;9.85;5.90;;;10.10;86.90;;;;;;1890880;76;21534;-40
2021/12/05 12:56:40;;;;;;;11.40;6.53;;;10.10;86.90;;;;;;1890668;75;21116;-40
2021/12/05 12:59:13;;;;;;;8.13;6.35;;;10.10;86.90;;;;;;1890380;76;21054;-39
2021/12/05 13:10:05;;;;;;;11.83;7.10;;;10.20;87.00;;;;;;1922334;74;21034;-39
2021/12/05 13:12:48;;;;;;;10.35;6.83;;;10.30;87.50;;;;;;1922964;74;21139;-38
2021/12/05 13:15:34;;;;;;;11.75;6.83;;;10.40;87.40;;;;;;1904882;74;21598;-41
2021/12/05 13:18:15;;;;;;;10.15;5.87;;;10.50;87.10;;;;;;1890603;74;21148;-39
2021/12/05 13:20:54;;;;;;;13.15;7.25;;;10.50;87.30;;;;;;1901139;74;21078;-40
2021/12/05 13:23:32;;;;;;;7.35;5.00;;;10.50;86.90;;;;;;1921934;74;21006;-39
2021/12/05 13:26:04;;;;;;;6.40;4.72;;;10.50;86.70;;;;;;1908181;74;21144;-40
2021/12/05 13:28:42;;;;;;;8.33;5.40;;;10.40;86.60;;;;;;1903014;74;21164;-39
2021/12/05 13:31:32;;;;;;;10.28;5.85;;;10.40;86.70;;;;;;1889114;76;21046;-40
2021/12/05 13:34:22;;;;;;;7.80;5.78;;;10.40;86.60;;;;;;1888622;76;21081;-40
2021/12/05 13:37:09;;;;;;;9.48;6.22;;;10.30;86.60;;;;;;1890060;76;21151;-40
2021/12/05 13:39:56;;;;;;;8.20;6.72;;;10.30;86.40;;;;;;1884593;76;21035;-40
2021/12/05 13:42:45;;;;;;;9.30;6.17;;;10.20;86.70;;;;;;1871777;75;21015;-41
2021/12/05 13:45:22;;;;;;;10.10;5.35;;;10.10;86.50;;;;;;1872439;76;21113;-40
2021/12/05 13:47:58;;;;;;;8.40;5.60;;;10.10;86.50;;;;;;1872801;77;21039;-40
2021/12/05 13:50:30;;;;;;;9.28;6.67;;;10.10;86.90;;;;;;1872827;77;21019;-40
2021/12/05 13:53:11;;;;;;;14.95;7.67;;;10.00;86.40;;;;;;1872813;76;21109;-40
2021/12/05 13:55:46;;;;;;;12.18;7.25;;;10.00;86.70;;;;;;1872858;75;21039;-40
2021/12/05 13:58:24;;;;;;;14.33;7.62;;;10.00;86.70;;;;;;1872808;76;21426;-40
2021/12/05 14:01:03;;;;;;;11.18;6.85;;;10.00;87.10;;;;;;1872802;77;21035;-40
2021/12/05 14:03:50;;;;;;;6.87;5.83;;;10.10;87.20;;;;;;1872804;77;21093;-40
2021/12/05 14:06:44;;;;;;;8.70;5.62;;;10.10;86.70;;;;;;1872674;76;21051;-40
2021/12/05 14:09:27;;;;;;;8.05;5.75;;;10.00;86.10;;;;;;1872639;76;21026;-40
2021/12/05 14:11:59;;;;;;;7.28;5.97;;;9.90;85.90;;;;;;1872947;77;21539;-40
2021/12/05 14:14:38;;;;;;;9.95;5.90;;;9.90;86.20;;;;;;1872665;77;21023;-40
2021/12/05 14:17:10;;;;;;;7.58;5.53;;;9.80;86.30;;;;;;1872724;77;21113;-40
2021/12/05 14:19:41;;;;;;;6.47;5.47;;;9.80;86.50;;;;;;1872619;75;21084;-40
2021/12/05 14:22:13;;;;;;;8.98;6.55;;;9.80;86.60;;;;;;1872712;77;21046;-40
2021/12/05 14:24:45;;;;;;;12.03;6.75;;;9.80;86.80;;;;;;1872775;77;21504;-40
2021/12/05 14:27:18;;;;;;;11.33;6.70;;;9.80;87.00;;;;;;1872798;77;21031;-40
2021/12/05 14:29:50;;;;;;;10.58;6.80;;;9.80;86.60;;;;;;1872705;77;21000;-40
2021/12/05 14:32:23;;;;;;;11.03;7.53;;;9.80;86.40;;;;;;1872748;77;21031;-40
2021/12/05 14:34:56;;;;;;;13.60;9.45;;;9.80;87.00;;;;;;1872660;76;21039;-40
2021/12/05 14:37:27;;;;;;;13.25;7.75;;;9.80;86.80;;;;;;1872374;76;21031;-40
2021/12/05 14:39:59;;;;;;;10.68;6.55;;;9.80;86.60;;;;;;1876552;76;21034;-40
2021/12/05 14:42:32;;;;;;;9.08;6.75;;;9.80;87.00;;;;;;1891513;76;21018;-40
2021/12/05 14:45:04;;;;;;;11.88;7.05;;;9.80;86.90;;;;;;1891461;76;21038;-40
2021/12/05 14:47:35;;;;;;;7.78;6.00;;;9.80;87.10;;;;;;1889993;75;21492;-39
2021/12/05 14:50:10;;;;;;;8.63;6.62;;;9.90;87.40;;;;;;1891338;75;21026;-39
2021/12/05 14:52:42;;;;;;;13.83;7.17;;;9.90;87.30;;;;;;1891573;76;21010;-40
2021/12/05 14:55:13;;;;;;;9.10;7.22;;;9.90;87.10;;;;;;1891401;75;21160;-40
2021/12/05 14:57:55;;;;;;;11.95;6.92;;;10.00;87.10;;;;;;1891415;76;21022;-40
2021/12/05 15:00:27;;;;;;;10.90;6.95;;;10.00;87.30;;;;;;1890329;75;21002;-40
2021/12/05 15:03:05;;;;;;;8.55;6.22;;;10.00;87.30;;;;;;1891616;76;21058;-40
2021/12/05 15:05:36;;;;;;;9.98;6.90;;;10.00;87.40;;;;;;1891387;76;21076;-40
2021/12/05 15:08:08;;;;;;;11.03;7.80;;;10.10;87.60;;;;;;1891528;76;21034;-40
2021/12/05 15:10:38;;;;;;;11.05;6.67;;;10.10;87.60;;;;;;1891604;76;21089;-40
2021/12/05 15:13:08;;;;;;;9.48;6.92;;;10.10;87.50;;;;;;1891511;76;21105;-40
2021/12/05 15:15:38;;;;;;;10.93;7.15;;;10.20;87.60;;;;;;1891612;76;21019;-39
2021/12/05 15:18:09;;;;;;;8.25;5.67;;;10.20;87.50;;;;;;1891537;76;21042;-40
2021/12/05 15:20:38;;;;;;;6.87;5.55;;;10.20;86.70;;;;;;1891088;75;21472;-40
2021/12/05 15:23:10;;;;;;;10.43;6.20;;;10.20;86.10;;;;;;1891480;76;21019;-40
2021/12/05 15:25:42;;;;;;;9.30;6.28;;;10.10;86.60;;;;;;1891510;76;21046;-40
2021/12/05 15:28:12;;;;;;;12.28;6.40;;;10.10;86.70;;;;;;1891517;76;21134;-40
2021/12/05 15:30:47;;;;;;;11.85;6.40;;;10.20;87.00;;;;;;1891587;76;21006;-41
2021/12/05 15:33:29;;;;;;;7.53;5.70;;;10.20;87.10;;;;;;1891627;76;20994;-39
2021/12/05 15:35:58;;;;;;;9.38;5.42;;;10.20;87.20;;;;;;1891353;75;21574;-40
2021/12/05 15:38:30;;;;;;;9.00;6.60;;;10.30;87.20;;;;;;1891522;76;21485;-40
2021/12/05 15:41:09;;;;;;;15.90;9.28;;;10.30;87.20;;;;;;1883709;76;21133;-40
2021/12/05 15:43:41;;;;;;;8.60;6.03;;;10.30;87.10;;;;;;1872704;75;20999;-39
2021/12/05 15:46:13;;;;;;;9.93;6.30;;;10.30;86.70;;;;;;1872687;75;21027;-40
2021/12/05 15:48:45;;;;;;;13.80;7.80;;;10.20;86.90;;;;;;1872804;76;21124;-40
2021/12/05 15:51:13;;;;;;;11.48;6.55;;;10.20;86.90;;;;;;1872773;76;21073;-40
2021/12/05 15:53:43;;;;;;;9.70;5.80;;;10.20;86.90;;;;;;1872660;77;21039;-40
2021/12/05 15:56:15;;;;;;;13.05;8.90;;;10.20;87.20;;;;;;1872791;75;21036;-39
2021/12/05 15:58:46;;;;;;;11.12;7.15;;;10.20;87.20;;;;;;1872772;77;21089;-40
2021/12/05 16:01:18;;;;;;;10.80;7.33;;;10.20;86.90;;;;;;1872732;77;21023;-40
2021/12/05 16:03:52;;;;;;;9.05;6.35;;;10.20;86.80;;;;;;1872645;77;21042;-40
2021/12/05 16:06:24;;;;;;;10.28;7.15;;;10.10;86.70;;;;;;1872868;75;21187;-41
2021/12/05 16:08:54;;;;;;;10.88;5.67;;;10.10;86.90;;;;;;1872278;76;21059;-41
2021/12/05 16:11:23;;;;;;;14.95;9.23;;;10.10;86.80;;;;;;1872775;77;21031;-40
2021/12/05 16:13:54;;;;;;;12.75;8.25;;;10.10;87.00;;;;;;1872699;75;21097;-40
2021/12/05 16:16:26;;;;;;;9.10;6.35;;;10.10;87.10;;;;;;1872854;77;21034;-40
2021/12/05 16:18:58;;;;;;;11.20;6.70;;;10.10;87.20;;;;;;1872951;76;21507;-40
2021/12/05 16:21:30;;;;;;;12.63;6.80;;;10.20;87.10;;;;;;1872791;77;21031;-40
2021/12/05 16:24:17;;;;;;;10.93;7.53;;;10.20;87.10;;;;;;1872777;77;21740;-40
2021/12/05 16:26:49;;;;;;;11.45;7.78;;;10.20;87.30;;;;;;1872757;77;21003;-40
2021/12/05 16:29:20;;;;;;;13.58;8.48;;;10.20;87.00;;;;;;1860924;77;21023;-40
2021/12/05 16:31:53;;;;;;;12.03;8.23;;;10.20;86.90;;;;;;1872768;77;21088;-40
2021/12/05 16:34:25;;;;;;;12.95;9.05;;;10.20;87.10;;;;;;1872879;76;21043;-41
2021/12/05 16:37:00;;;;;;;11.50;6.92;;;10.20;87.00;;;;;;1872899;77;21120;-40
2021/12/05 16:39:32;;;;;;;11.40;7.55;;;10.20;87.20;;;;;;1864478;76;21007;-40
2021/12/05 16:42:04;;;;;;;16.17;9.48;;;10.20;86.90;;;;;;1884054;75;21109;-40
2021/12/05 16:44:37;;;;;;;20.57;12.35;;;10.20;87.00;;;;;;1890691;75;21058;-40
2021/12/05 16:47:11;;;;;;;14.00;8.83;;;10.20;87.00;;;;;;1891617;76;21022;-40
2021/12/05 16:49:42;;;;;;;16.27;9.90;;;10.30;87.10;;;;;;1891656;76;21484;-40
2021/12/05 16:52:19;;;;;;;14.58;9.38;;;10.30;86.80;;;;;;1891698;76;21046;-40
2021/12/05 16:54:53;;;;;;;11.73;8.18;;;10.30;86.80;;;;;;1891061;75;21493;-40
2021/12/05 16:57:29;;;;;;;13.68;7.95;;;10.30;87.00;;;;;;1891544;76;21046;-40
2021/12/05 16:59:57;;;;;;;13.55;8.70;;;10.30;87.10;;;;;;1891295;75;21021;-40
2021/12/05 17:02:32;;;;;;;12.40;8.15;;;10.30;87.00;;;;;;1891604;76;21085;-40
2021/12/05 17:05:18;;;;;;;8.68;6.28;;;10.30;86.20;;;;;;1890230;75;21194;-40
2021/12/05 17:08:13;;;;;;;10.40;7.67;;;10.30;86.30;;;;;;1891700;76;21031;-40
2021/12/05 17:10:29;;;;;;;9.45;6.92;;;10.30;86.30;;;;;;1884766;75;21469;-40
2021/12/05 17:13:09;;;;;;;8.95;5.50;;;10.20;86.10;;;;;;1891483;76;21022;-40
2021/12/05 17:15:47;;;;;;;8.48;6.58;;;10.30;86.40;;;;;;1891556;76;21131;-40
2021/12/05 17:18:19;;;;;;;12.85;6.95;;;10.20;86.30;;;;;;1891515;76;21023;-40
2021/12/05 17:21:00;;;;;;;12.93;6.47;;;10.30;86.50;;;;;;1890601;75;21011;-41
2021/12/05 17:23:38;;;;;;;8.65;6.05;;;10.20;86.30;;;;;;1891592;76;21493;-41
2021/12/05 17:26:09;;;;;;;9.93;6.90;;;10.20;86.70;;;;;;1891516;75;21542;-40
2021/12/05 17:28:50;;;;;;;8.28;6.15;;;10.20;86.10;;;;;;1891578;75;21147;-40
2021/12/05 17:31:28;;;;;;;8.63;6.50;;;10.20;85.40;;;;;;1891478;76;21437;-40
2021/12/05 17:34:00;;;;;;;8.60;6.12;;;10.10;86.10;;;;;;1890856;75;21006;-40
2021/12/05 17:36:35;;;;;;;7.92;5.85;;;10.10;86.30;;;;;;1890858;75;21046;-40
2021/12/05 17:39:07;;;;;;;;;;;10.10;86.10;;;;;;1893609;75;21066;-40
2021/12/05 17:41:37;;;;;;;9.98;6.35;;;10.10;85.90;;;;;;1887180;76;20139;-40
2021/12/05 17:44:07;;;;;;;7.15;5.47;;;10.10;86.30;;;;;;1872654;76;21019;-41
2021/12/05 17:46:38;;;;;;;9.25;5.58;;;10.00;86.20;;;;;;1872782;76;21022;-40
2021/12/05 17:49:10;;;;;;;10.43;6.03;;;10.00;86.10;;;;;;1872724;76;21023;-40
2021/12/05 17:51:41;;;;;;;10.25;7.05;;;10.00;86.30;;;;;;1872872;77;21470;-40
2021/12/05 17:54:22;;;;;;;8.70;5.95;;;10.00;86.30;;;;;;1872717;77;21085;-40
2021/12/05 17:56:52;;;;;;;7.60;6.05;;;10.00;85.90;;;;;;1872486;76;21184;-40